CheckWX is a tool to help pilots better visualize weather data.  It is not intended as a substitute for an official pre-flight weather briefing.

10:26:46 UTC

EPKT METAR
Katowice International Airport
Katowice, Poland
Current

27 mins ago

EPKT 261000Z 26014KT 9999 SCT025 BKN029 06/M02 Q1020
Observed
Mar-26 @ 10:00 UTC
Wind
  • 260° at 14 KTS
Visibility
10,000+ meters
Flight Rules
MVFR
Cloud Levels
  • Scattered at 2,500' AGL
  • Broken at 2,900' AGL
Temperature
C / 43°F
Dewpoint
-2°C / 28°F
Humidity
57%
Altimeter
30.12" Hg
Pressure
1019.92 hPa
Previous

57 mins ago

EPKT 260930Z 27015KT 9999 SCT024 BKN027 05/M01 Q1020
Observed
Mar-26 @ 09:30 UTC
Wind
  • 270° at 15 KTS
Visibility
10,000+ meters
Flight Rules
MVFR
Cloud Levels
  • Scattered at 2,400' AGL
  • Broken at 2,700' AGL
Temperature
C / 41°F
Dewpoint
-1°C / 30°F
Humidity
66%
Altimeter
30.12" Hg
Pressure
1019.92 hPa
Previous

1 hour ago

EPKT 260900Z 27013KT 9999 FEW018 SCT020 BKN024 04/M01 Q1021
Observed
Mar-26 @ 09:00 UTC
Wind
  • 270° at 13 KTS
Visibility
10,000+ meters
Flight Rules
MVFR
Cloud Levels
  • Few at 1,800' AGL
  • Scattered at 2,000' AGL
  • Broken at 2,400' AGL
Temperature
C / 39°F
Dewpoint
-1°C / 30°F
Humidity
70%
Altimeter
30.15" Hg
Pressure
1020.92 hPa